createdAt,value
2022-12-28T00:01:52.667Z,11.38
2022-12-28T00:04:20.523Z,9.27
2022-12-28T00:06:50.698Z,7.97
2022-12-28T00:09:18.423Z,8.40
2022-12-28T00:11:46.280Z,5.87
2022-12-28T00:14:13.830Z,8.57
2022-12-28T00:16:42.823Z,5.80
2022-12-28T00:19:12.856Z,5.55
2022-12-28T00:21:41.107Z,7.10
2022-12-28T00:24:15.996Z,7.15
2022-12-28T00:26:43.798Z,8.00
2022-12-28T00:29:11.954Z,10.45
2022-12-28T00:31:39.637Z,10.70
2022-12-28T00:34:07.565Z,10.23
2022-12-28T00:37:08.300Z,6.80
2022-12-28T00:39:23.053Z,5.22
2022-12-28T00:41:50.692Z,7.00
2022-12-28T00:44:18.255Z,6.47
2022-12-28T00:46:46.076Z,7.10
2022-12-28T00:49:13.684Z,5.85
2022-12-28T00:51:41.250Z,5.57
2022-12-28T00:54:09.314Z,4.00
2022-12-28T00:56:36.857Z,5.07
2022-12-28T00:59:04.393Z,4.47
2022-12-28T01:01:32.292Z,5.32
2022-12-28T01:04:00.125Z,4.28
2022-12-28T01:06:28.930Z,3.50
2022-12-28T01:08:58.217Z,3.90
2022-12-28T01:11:30.119Z,3.17
2022-12-28T01:14:00.402Z,5.87
2022-12-28T01:16:34.875Z,7.87
2022-12-28T01:19:06.258Z,3.05
2022-12-28T01:21:35.758Z,2.58
2022-12-28T01:24:05.777Z,3.37
2022-12-28T01:26:33.914Z,6.72
2022-12-28T01:29:01.786Z,7.70
2022-12-28T01:31:32.976Z,6.85
2022-12-28T01:34:01.943Z,4.37
2022-12-28T01:36:37.403Z,3.47
2022-12-28T01:39:06.930Z,2.22
2022-12-28T01:41:39.483Z,5.80
2022-12-28T01:44:07.382Z,8.52
2022-12-28T01:46:37.993Z,5.03
2022-12-28T01:49:14.200Z,5.70
2022-12-28T01:51:52.592Z,5.15
2022-12-28T01:54:23.258Z,6.57
2022-12-28T01:56:51.631Z,5.85
2022-12-28T01:59:22.486Z,4.18
2022-12-28T02:01:52.211Z,3.33
2022-12-28T02:04:20.594Z,4.55
2022-12-28T02:06:48.687Z,3.00
2022-12-28T02:09:28.130Z,2.85
2022-12-28T02:11:55.977Z,2.53
2022-12-28T02:14:23.740Z,2.67
2022-12-28T02:16:54.485Z,2.28
2022-12-28T02:19:33.396Z,2.72
2022-12-28T02:22:17.325Z,1.80
2022-12-28T02:25:22.207Z,2.25
2022-12-28T02:28:14.348Z,2.10
2022-12-28T02:30:50.445Z,4.28
2022-12-28T02:33:32.939Z,8.43
2022-12-28T02:36:05.964Z,4.68
2022-12-28T02:38:43.555Z,4.62
2022-12-28T02:41:15.214Z,3.53
2022-12-28T02:43:43.317Z,3.42
2022-12-28T02:46:39.853Z,2.53
2022-12-28T02:49:44.002Z,2.97
2022-12-28T02:52:14.561Z,1.08
2022-12-28T02:55:11.274Z,1.17
2022-12-28T02:58:07.830Z,3.28
2022-12-28T03:00:41.734Z,2.15
2022-12-28T03:03:37.294Z,2.25
2022-12-28T03:06:40.805Z,3.42
2022-12-28T03:09:28.517Z,4.20
2022-12-28T03:12:26.618Z,3.95
2022-12-28T03:15:03.995Z,3.15
2022-12-28T03:17:55.714Z,4.80
2022-12-28T03:20:45.847Z,4.68
2022-12-28T03:23:35.907Z,1.87
2022-12-28T03:26:24.973Z,4.68
2022-12-28T03:29:13.501Z,2.40
2022-12-28T03:31:42.243Z,2.55
2022-12-28T03:34:11.117Z,3.22
2022-12-28T03:36:54.406Z,1.73
2022-12-28T03:39:41.674Z,1.60
2022-12-28T03:42:40.921Z,3.00
2022-12-28T03:45:53.562Z,1.52
2022-12-28T03:48:22.866Z,2.25
2022-12-28T03:50:52.007Z,3.20
2022-12-28T03:53:24.375Z,1.55
2022-12-28T03:55:53.005Z,3.58
2022-12-28T03:58:22.041Z,1.55
2022-12-28T04:00:50.821Z,2.22
2022-12-28T04:03:19.335Z,1.43
2022-12-28T04:05:46.873Z,1.95
2022-12-28T04:08:14.477Z,2.53
2022-12-28T04:10:42.430Z,3.90
2022-12-28T04:13:10.059Z,4.55
2022-12-28T04:15:37.732Z,3.33
2022-12-28T04:18:05.612Z,1.30
2022-12-28T04:20:33.407Z,1.58
2022-12-28T04:23:01.885Z,6.37
2022-12-28T04:25:29.818Z,6.60
2022-12-28T04:27:57.410Z,6.23
2022-12-28T04:30:26.556Z,6.22
2022-12-28T04:32:55.526Z,6.47
2022-12-28T04:35:23.220Z,6.95
2022-12-28T04:37:50.771Z,9.07
2022-12-28T04:40:18.596Z,2.73
2022-12-28T04:42:46.055Z,2.50
2022-12-28T04:45:16.968Z,1.80
2022-12-28T04:47:49.527Z,1.58
2022-12-28T04:50:17.043Z,2.97
2022-12-28T04:52:44.566Z,1.97
2022-12-28T04:55:31.583Z,2.45
2022-12-28T04:58:00.894Z,2.20
2022-12-28T05:00:28.722Z,1.45
2022-12-28T05:03:00.257Z,7.80
2022-12-28T05:05:28.769Z,5.67
2022-12-28T05:08:00.631Z,4.93
2022-12-28T05:10:29.530Z,5.82
2022-12-28T05:12:57.376Z,5.90
2022-12-28T05:15:24.916Z,6.60
2022-12-28T05:17:52.500Z,6.80
2022-12-28T05:20:20.674Z,4.03
2022-12-28T05:22:48.225Z,6.43
2022-12-28T05:25:16.004Z,4.18
2022-12-28T05:27:43.820Z,4.20
2022-12-28T05:30:11.733Z,3.30
2022-12-28T05:32:39.236Z,5.53
2022-12-28T05:35:07.604Z,4.43
2022-12-28T05:37:35.116Z,4.43
2022-12-28T05:40:02.650Z,5.60
2022-12-28T05:42:30.445Z,4.00
2022-12-28T05:44:57.900Z,4.80
2022-12-28T05:47:25.373Z,3.87
2022-12-28T05:49:53.235Z,3.30
2022-12-28T05:52:20.711Z,3.80
2022-12-28T05:54:48.200Z,2.97
2022-12-28T05:57:15.980Z,3.12
2022-12-28T05:59:43.455Z,4.87
2022-12-28T06:02:11.027Z,3.40
2022-12-28T06:04:38.973Z,3.28
2022-12-28T06:07:06.500Z,4.23
2022-12-28T06:09:33.959Z,4.60
2022-12-28T06:12:01.795Z,3.67
2022-12-28T06:14:29.290Z,3.60
2022-12-28T06:16:56.914Z,3.70
2022-12-28T06:19:24.817Z,3.53
2022-12-28T06:21:52.504Z,2.47
2022-12-28T06:24:20.044Z,3.53
2022-12-28T06:26:48.504Z,4.18
2022-12-28T06:29:16.135Z,4.57
2022-12-28T06:31:51.482Z,3.97
2022-12-28T06:34:19.637Z,4.70
2022-12-28T06:36:50.889Z,4.40
2022-12-28T06:39:18.666Z,3.05
2022-12-28T06:41:46.203Z,4.90
2022-12-28T06:44:14.202Z,6.57
2022-12-28T06:46:42.416Z,4.80
2022-12-28T06:49:10.165Z,3.55
2022-12-28T06:51:42.289Z,4.72
2022-12-28T06:54:10.889Z,2.62
2022-12-28T06:56:39.228Z,4.50
2022-12-28T06:59:07.364Z,6.12
2022-12-28T07:01:41.390Z,6.03
2022-12-28T07:04:10.976Z,2.87
2022-12-28T07:06:41.634Z,2.80
2022-12-28T07:09:13.406Z,3.13
2022-12-28T07:11:43.047Z,3.97
2022-12-28T07:14:10.887Z,3.12
2022-12-28T07:19:05.335Z,4.85
2022-12-28T07:21:36.050Z,4.47
2022-12-28T07:24:04.718Z,4.95
2022-12-28T07:26:35.257Z,5.60
2022-12-28T07:29:05.672Z,4.62
2022-12-28T07:31:44.613Z,11.55
2022-12-28T07:34:15.360Z,13.87
2022-12-28T07:36:43.920Z,12.95
2022-12-28T07:39:11.684Z,14.23
2022-12-28T07:41:39.249Z,13.80
2022-12-28T07:44:07.300Z,15.57
2022-12-28T07:46:36.664Z,13.27
2022-12-28T07:49:04.759Z,10.80
2022-12-28T07:51:37.621Z,11.95
2022-12-28T07:54:06.306Z,11.88
2022-12-28T07:59:03.499Z,13.67
2022-12-28T08:01:33.489Z,6.28
2022-12-28T08:04:04.195Z,4.10
2022-12-28T08:06:35.271Z,4.12
2022-12-28T08:09:04.923Z,3.70
2022-12-28T08:11:35.142Z,4.57
2022-12-28T08:14:04.358Z,6.53
2022-12-28T08:16:35.723Z,13.85
2022-12-28T08:19:04.692Z,8.85
2022-12-28T08:21:34.105Z,9.55
2022-12-28T08:24:02.376Z,12.67
2022-12-28T08:26:36.168Z,13.32
2022-12-28T08:29:06.619Z,12.25
2022-12-28T08:31:37.686Z,12.63
2022-12-28T08:34:07.667Z,9.75
2022-12-28T08:36:35.719Z,8.23
2022-12-28T08:39:03.970Z,7.20
2022-12-28T08:41:31.835Z,8.07
2022-12-28T08:43:59.849Z,9.25
2022-12-28T08:46:33.441Z,8.40
2022-12-28T08:49:01.983Z,12.83
2022-12-28T08:51:39.800Z,9.30
2022-12-28T08:54:09.834Z,9.90
2022-12-28T08:56:39.331Z,7.50
2022-12-28T08:59:07.826Z,6.55
2022-12-28T09:01:44.077Z,6.87
2022-12-28T09:04:20.639Z,19.92
2022-12-28T09:06:49.089Z,24.83
2022-12-28T09:09:19.904Z,23.05
2022-12-28T09:11:48.683Z,18.40
2022-12-28T09:14:23.278Z,15.20
2022-12-28T09:16:54.953Z,12.27
2022-12-28T09:19:23.279Z,13.60
2022-12-28T09:21:53.259Z,6.57
2022-12-28T09:24:22.933Z,2.85
2022-12-28T09:26:52.915Z,2.23
2022-12-28T09:29:23.755Z,2.83
2022-12-28T09:31:51.291Z,3.58
2022-12-28T09:34:36.704Z,3.25
2022-12-28T09:37:07.262Z,3.05
2022-12-28T09:39:34.882Z,3.70
2022-12-28T09:42:03.918Z,4.50
2022-12-28T09:44:46.647Z,3.95
2022-12-28T09:47:26.120Z,10.88
2022-12-28T09:50:25.871Z,10.07
2022-12-28T09:53:12.658Z,6.30
2022-12-28T09:55:43.929Z,6.90
2022-12-28T09:58:17.529Z,7.25
2022-12-28T10:00:52.940Z,3.90
2022-12-28T10:03:51.966Z,3.80
2022-12-28T10:06:26.614Z,4.27
2022-12-28T10:08:57.948Z,5.85
2022-12-28T10:11:42.260Z,4.90
2022-12-28T10:14:28.132Z,6.18
2022-12-28T10:16:56.128Z,2.87
2022-12-28T10:19:25.937Z,3.77
2022-12-28T10:22:00.203Z,5.07
2022-12-28T10:24:31.826Z,4.80
2022-12-28T10:27:02.030Z,6.22
2022-12-28T10:29:32.393Z,4.40
2022-12-28T10:32:04.754Z,3.10
2022-12-28T10:34:35.134Z,2.17
2022-12-28T10:37:14.744Z,1.77
2022-12-28T10:40:20.736Z,1.73
2022-12-28T10:42:52.935Z,2.25
2022-12-28T10:45:25.380Z,4.07
2022-12-28T10:47:55.877Z,2.95
2022-12-28T10:50:47.322Z,3.03
2022-12-28T10:53:20.610Z,3.70
2022-12-28T10:55:48.481Z,2.45
2022-12-28T10:58:33.021Z,4.97
2022-12-28T11:01:12.511Z,3.65
2022-12-28T11:04:01.972Z,3.83
2022-12-28T11:06:35.295Z,5.43
2022-12-28T11:09:17.219Z,3.58
2022-12-28T11:11:47.297Z,2.90
2022-12-28T11:14:17.556Z,2.83
2022-12-28T11:16:45.483Z,2.92
2022-12-28T11:19:13.534Z,6.82
2022-12-28T11:21:43.101Z,7.28
2022-12-28T11:24:25.711Z,6.37
2022-12-28T11:26:53.514Z,5.18
2022-12-28T11:29:21.388Z,6.20
2022-12-28T11:32:32.397Z,4.87
2022-12-28T11:35:00.910Z,5.78
2022-12-28T11:37:28.614Z,9.33
2022-12-28T11:39:56.463Z,4.68
2022-12-28T11:42:40.448Z,3.65
2022-12-28T11:45:36.290Z,5.20
2022-12-28T11:48:40.121Z,5.35
2022-12-28T11:51:19.835Z,2.30
2022-12-28T11:53:48.197Z,4.62
2022-12-28T11:56:18.411Z,3.58
2022-12-28T11:59:01.307Z,3.12
2022-12-28T12:01:41.109Z,3.58
2022-12-28T12:04:18.182Z,2.47
2022-12-28T12:06:47.141Z,4.12
2022-12-28T12:09:30.824Z,3.35
2022-12-28T12:12:01.176Z,4.47
2022-12-28T12:14:38.254Z,2.85
2022-12-28T12:17:08.012Z,3.77
2022-12-28T12:19:38.968Z,4.75
2022-12-28T12:22:14.989Z,3.53
2022-12-28T12:24:55.136Z,2.75
2022-12-28T12:27:43.700Z,3.30
2022-12-28T12:30:20.155Z,3.50
2022-12-28T12:33:02.443Z,3.17
2022-12-28T12:35:55.534Z,3.50
2022-12-28T12:38:29.037Z,5.35
2022-12-28T12:41:19.197Z,5.97
2022-12-28T12:43:55.613Z,4.20
2022-12-28T12:46:47.348Z,4.82
2022-12-28T12:49:33.092Z,5.20
2022-12-28T12:52:09.939Z,4.37
2022-12-28T12:55:12.505Z,4.47
2022-12-28T12:57:51.141Z,3.37
2022-12-28T13:00:21.361Z,4.53
2022-12-28T13:03:14.866Z,3.70
2022-12-28T13:05:49.895Z,3.97
2022-12-28T13:08:25.400Z,3.72
2022-12-28T13:10:54.734Z,2.80
2022-12-28T13:13:36.145Z,3.35
2022-12-28T13:16:09.780Z,2.65
2022-12-28T13:18:46.000Z,3.45
2022-12-28T13:21:20.410Z,4.78
2022-12-28T13:23:49.318Z,4.83
2022-12-28T13:26:17.533Z,2.90
2022-12-28T13:28:54.013Z,4.55
2022-12-28T13:31:32.794Z,6.62
2022-12-28T13:34:03.627Z,4.65
2022-12-28T13:36:32.023Z,4.10
2022-12-28T13:39:20.823Z,2.95
2022-12-28T13:41:51.916Z,3.12
2022-12-28T13:44:50.311Z,3.72
2022-12-28T13:47:34.358Z,4.35
2022-12-28T13:50:14.580Z,4.27
2022-12-28T13:52:53.017Z,3.67
2022-12-28T13:55:45.661Z,4.28
2022-12-28T13:58:25.333Z,3.45
2022-12-28T14:00:55.328Z,3.45
2022-12-28T14:03:23.984Z,3.30
2022-12-28T14:05:55.869Z,4.78
2022-12-28T14:08:23.925Z,3.28
2022-12-28T14:10:52.319Z,3.28
2022-12-28T14:13:20.713Z,3.90
2022-12-28T14:15:49.363Z,4.70
2022-12-28T14:18:18.427Z,3.22
2022-12-28T14:20:57.413Z,4.68
2022-12-28T14:23:31.005Z,5.97
2022-12-28T14:26:01.607Z,4.20
2022-12-28T14:28:37.623Z,4.87
2022-12-28T14:31:07.709Z,5.15
2022-12-28T14:33:41.731Z,6.97
2022-12-28T14:36:21.957Z,3.78
2022-12-28T14:38:58.306Z,5.40
2022-12-28T14:41:40.318Z,3.60
2022-12-28T14:47:35.390Z,4.47
2022-12-28T14:50:21.660Z,7.10
2022-12-28T14:52:50.804Z,5.15
2022-12-28T14:55:25.326Z,3.97
2022-12-28T14:57:58.713Z,4.12
2022-12-28T15:00:25.333Z,5.65
2022-12-28T15:00:32.548Z,4.12
2022-12-28T15:03:17.977Z,9.65
2022-12-28T15:05:48.650Z,4.72
2022-12-28T15:08:16.234Z,6.47
2022-12-28T15:10:59.763Z,5.62
2022-12-28T15:13:27.637Z,5.80
2022-12-28T15:15:56.600Z,5.68
2022-12-28T15:18:25.183Z,4.57
2022-12-28T15:20:53.504Z,4.60
2022-12-28T15:23:21.280Z,8.98
2022-12-28T15:25:49.181Z,3.90
2022-12-28T15:28:17.104Z,6.53
2022-12-28T15:30:45.072Z,4.35
2022-12-28T15:33:13.047Z,3.23
2022-12-28T15:35:40.869Z,3.45
2022-12-28T15:38:08.386Z,4.65
2022-12-28T15:40:39.902Z,5.30
2022-12-28T15:43:07.859Z,6.03
2022-12-28T15:45:35.401Z,6.20
2022-12-28T15:48:02.967Z,4.57
2022-12-28T15:50:32.245Z,3.97
2022-12-28T15:53:00.689Z,3.62
2022-12-28T15:55:28.435Z,3.85
2022-12-28T15:57:56.397Z,4.30
2022-12-28T16:00:24.432Z,3.25
2022-12-28T16:02:52.472Z,3.95
2022-12-28T16:05:20.397Z,5.07
2022-12-28T16:07:48.652Z,3.20
2022-12-28T16:10:16.549Z,3.90
2022-12-28T16:12:44.100Z,3.15
2022-12-28T16:15:12.011Z,4.00
2022-12-28T16:17:48.624Z,4.47
2022-12-28T16:20:17.588Z,4.35
2022-12-28T16:22:45.421Z,5.03
2022-12-28T16:25:13.217Z,4.87
2022-12-28T16:27:41.210Z,4.50
2022-12-28T16:30:09.669Z,4.18
2022-12-28T16:32:37.293Z,3.33
2022-12-28T16:35:05.246Z,3.67
2022-12-28T16:37:33.094Z,3.97
2022-12-28T16:40:00.803Z,4.70
2022-12-28T16:42:28.615Z,4.70
2022-12-28T16:44:56.404Z,4.90
2022-12-28T16:47:23.937Z,4.50
2022-12-28T16:49:51.453Z,5.97
2022-12-28T16:52:19.253Z,4.57
2022-12-28T16:54:46.772Z,3.47
2022-12-28T16:57:14.319Z,4.82
2022-12-28T16:59:42.111Z,7.73
2022-12-28T17:02:13.117Z,3.83
2022-12-28T17:04:40.759Z,4.32
2022-12-28T17:07:08.597Z,3.87
2022-12-28T17:09:36.216Z,4.45
2022-12-28T17:12:03.829Z,5.00
2022-12-28T17:14:38.747Z,3.50
2022-12-28T17:17:07.283Z,5.07
2022-12-28T17:19:35.649Z,5.35
2022-12-28T17:22:04.384Z,7.07
2022-12-28T17:24:31.963Z,8.03
2022-12-28T17:27:06.882Z,6.22
2022-12-28T17:29:37.313Z,6.12
2022-12-28T17:32:06.419Z,7.65
2022-12-28T17:34:34.198Z,6.90
2022-12-28T17:37:01.800Z,12.73
2022-12-28T17:39:33.174Z,8.25
2022-12-28T17:42:04.526Z,8.88
2022-12-28T17:44:33.010Z,10.45
2022-12-28T17:47:00.521Z,9.93
2022-12-28T17:49:28.076Z,11.20
2022-12-28T17:51:55.952Z,12.88
2022-12-28T17:54:23.969Z,10.20
2022-12-28T17:56:51.500Z,6.85
2022-12-28T17:59:19.376Z,9.68
2022-12-28T18:01:47.078Z,9.07
2022-12-28T18:04:15.511Z,11.10
2022-12-28T18:06:43.198Z,9.57
2022-12-28T18:09:10.745Z,13.85
2022-12-28T18:11:38.539Z,9.30
2022-12-28T18:14:07.783Z,9.03
2022-12-28T18:16:35.405Z,11.23
2022-12-28T18:19:03.475Z,9.57
2022-12-28T18:21:31.044Z,9.02
2022-12-28T18:23:58.521Z,10.20
2022-12-28T18:26:27.032Z,13.00
2022-12-28T18:28:56.008Z,11.93
2022-12-28T18:31:25.174Z,10.82
2022-12-28T18:33:53.449Z,8.23
2022-12-28T18:36:21.262Z,8.35
2022-12-28T18:38:49.328Z,10.00
2022-12-28T18:41:20.810Z,11.70
2022-12-28T18:43:49.455Z,11.48
2022-12-28T18:46:17.772Z,9.07
2022-12-28T18:48:45.614Z,13.15
2022-12-28T18:51:17.163Z,10.83
2022-12-28T18:53:45.697Z,11.48
2022-12-28T18:56:19.143Z,9.43
2022-12-28T18:58:56.613Z,10.15
2022-12-28T19:04:16.471Z,10.30
2022-12-28T19:06:44.580Z,11.48
2022-12-28T19:09:12.569Z,10.75
2022-12-28T19:11:40.945Z,16.10
2022-12-28T19:14:11.502Z,14.02
2022-12-28T19:16:39.262Z,12.57
2022-12-28T19:19:07.080Z,17.12
2022-12-28T19:21:36.685Z,17.02
2022-12-28T19:24:15.796Z,15.30
2022-12-28T19:26:44.481Z,14.30
2022-12-28T19:29:13.341Z,13.07
2022-12-28T19:31:41.234Z,17.67
2022-12-28T19:34:09.353Z,11.18
2022-12-28T19:36:37.117Z,11.32
2022-12-28T19:39:04.715Z,12.25
2022-12-28T19:41:32.636Z,11.90
2022-12-28T19:44:00.277Z,11.12
2022-12-28T19:46:31.607Z,9.93
2022-12-28T19:49:01.576Z,9.38
2022-12-28T19:51:31.577Z,12.55
2022-12-28T19:54:01.281Z,11.37
2022-12-28T19:56:29.120Z,12.18
2022-12-28T19:59:04.989Z,10.30
2022-12-28T20:01:36.750Z,12.88
2022-12-28T20:04:12.467Z,10.95
2022-12-28T20:06:43.395Z,9.53
2022-12-28T20:09:12.495Z,12.32
2022-12-28T20:11:40.957Z,9.68
2022-12-28T20:14:11.931Z,10.93
2022-12-28T20:16:40.197Z,14.50
2022-12-28T20:19:09.395Z,12.00
2022-12-28T20:21:39.061Z,11.07
2022-12-28T20:24:07.564Z,10.48
2022-12-28T20:26:35.933Z,10.75
2022-12-28T20:29:05.002Z,15.82
2022-12-28T20:31:32.951Z,11.43
2022-12-28T20:34:01.731Z,10.98
2022-12-28T20:36:31.898Z,12.82
2022-12-28T20:39:00.285Z,13.52
2022-12-28T20:41:49.345Z,11.38
2022-12-28T20:44:25.924Z,11.87
2022-12-28T20:46:54.740Z,8.93
2022-12-28T20:49:24.294Z,11.30
2022-12-28T20:51:52.825Z,7.12
2022-12-28T20:54:21.510Z,11.55
2022-12-28T20:56:54.755Z,7.67
2022-12-28T20:59:25.136Z,10.15
2022-12-28T21:01:53.576Z,9.52
2022-12-28T21:04:24.051Z,6.93
2022-12-28T21:06:54.883Z,10.00
2022-12-28T21:09:23.046Z,10.20
2022-12-28T21:11:50.674Z,12.70
2022-12-28T21:14:18.546Z,11.50
2022-12-28T21:16:46.531Z,13.40
2022-12-28T21:19:14.190Z,8.75
2022-12-28T21:21:41.800Z,12.93
2022-12-28T21:24:09.814Z,11.43
2022-12-28T21:26:37.368Z,10.55
2022-12-28T21:29:04.918Z,12.68
2022-12-28T21:31:32.880Z,12.00
2022-12-28T21:34:00.416Z,14.43
2022-12-28T21:36:27.935Z,9.55
2022-12-28T21:38:55.736Z,19.27
2022-12-28T21:41:41.821Z,11.35
2022-12-28T21:44:12.395Z,10.90
2022-12-28T21:46:40.489Z,13.57
2022-12-28T21:49:08.709Z,13.48
2022-12-28T21:51:38.373Z,13.07
2022-12-28T21:54:14.401Z,14.95
2022-12-28T21:56:44.431Z,16.42
2022-12-28T21:59:13.015Z,12.33
2022-12-28T22:02:01.193Z,17.08
2022-12-28T22:04:48.351Z,15.60
2022-12-28T22:07:18.684Z,18.48
2022-12-28T22:10:05.579Z,18.98
2022-12-28T22:12:37.252Z,18.37
2022-12-28T22:15:33.722Z,16.62
2022-12-28T22:18:36.679Z,17.33
2022-12-28T22:21:04.825Z,16.23
2022-12-28T22:23:34.867Z,15.75
2022-12-28T22:26:02.980Z,14.27
2022-12-28T22:28:31.003Z,13.30
2022-12-28T22:30:58.979Z,12.23
2022-12-28T22:33:26.463Z,11.95
2022-12-28T22:35:54.581Z,14.20
2022-12-28T22:38:22.145Z,16.73
2022-12-28T22:40:59.626Z,12.95
2022-12-28T22:43:27.434Z,17.35
2022-12-28T22:46:06.578Z,14.48
2022-12-28T22:48:34.945Z,16.30
2022-12-28T22:51:08.554Z,17.17
2022-12-28T22:53:36.979Z,19.62
2022-12-28T22:56:07.628Z,21.55
2022-12-28T22:58:35.525Z,15.30
2022-12-28T23:01:09.485Z,17.17
2022-12-28T23:03:39.041Z,13.43
2022-12-28T23:06:08.445Z,14.85
2022-12-28T23:08:36.049Z,14.68
2022-12-28T23:11:26.173Z,11.35
2022-12-28T23:13:54.053Z,16.33
2022-12-28T23:16:21.617Z,15.77
2022-12-28T23:19:08.032Z,16.17
2022-12-28T23:21:54.464Z,16.87
2022-12-28T23:24:48.402Z,16.42
2022-12-28T23:27:22.250Z,14.70
2022-12-28T23:29:50.910Z,16.20
2022-12-28T23:32:18.677Z,15.63
2022-12-28T23:34:48.648Z,17.02
2022-12-28T23:37:16.894Z,16.90
2022-12-28T23:39:44.736Z,17.95
2022-12-28T23:42:12.212Z,18.33
2022-12-28T23:44:39.739Z,21.35
2022-12-28T23:47:07.729Z,28.50
2022-12-28T23:49:35.205Z,29.45
2022-12-28T23:52:02.682Z,23.95
2022-12-28T23:54:30.518Z,18.83
2022-12-28T23:56:58.030Z,15.27
2022-12-28T23:59:25.557Z,24.12
